createdAt,value
2022-12-11T00:00:42.110Z,-1.09
2022-12-11T00:05:42.118Z,-1.11
2022-12-11T00:10:42.152Z,-1.11
2022-12-11T00:15:42.084Z,-1.11
2022-12-11T00:20:42.099Z,-1.08
2022-12-11T00:25:42.097Z,-1.05
2022-12-11T00:30:42.110Z,-1.03
2022-12-11T00:35:42.085Z,-1.02
2022-12-11T00:40:42.082Z,-0.98
2022-12-11T00:45:42.112Z,-0.95
2022-12-11T00:50:42.101Z,-0.94
2022-12-11T00:55:42.077Z,-0.9
2022-12-11T01:00:42.081Z,-0.94
2022-12-11T01:05:42.095Z,-0.94
2022-12-11T01:10:42.097Z,-0.9
2022-12-11T01:15:42.232Z,-0.9
2022-12-11T01:25:42.064Z,-0.9
2022-12-11T01:30:42.134Z,-0.93
2022-12-11T01:35:42.069Z,-0.94
2022-12-11T01:40:42.064Z,-0.93
2022-12-11T01:45:42.179Z,-0.92
2022-12-11T01:50:42.070Z,-0.9
2022-12-11T02:05:42.064Z,-0.97
2022-12-11T02:25:42.055Z,-1
2022-12-11T02:30:42.061Z,-0.97
2022-12-11T02:45:42.154Z,-1.17
2022-12-11T02:50:42.075Z,-1.18
2022-12-11T02:55:42.062Z,-1.2
2022-12-11T03:00:42.078Z,-1.24
2022-12-11T03:05:42.051Z,-1.3
2022-12-11T03:10:42.160Z,-1.26
2022-12-11T03:15:42.044Z,-1.21
2022-12-11T03:20:42.049Z,-1.23
2022-12-11T03:25:42.043Z,-1.21
2022-12-11T03:30:42.162Z,-1.22
2022-12-11T03:35:42.053Z,-1.22
2022-12-11T03:40:42.051Z,-1.2
2022-12-11T03:45:42.075Z,-1.21
2022-12-11T03:50:42.058Z,-1.22
2022-12-11T03:55:42.043Z,-1.28
2022-12-11T04:00:42.051Z,-1.35
2022-12-11T04:05:42.087Z,-1.41
2022-12-11T04:10:42.062Z,-1.42
2022-12-11T04:15:42.126Z,-1.42
2022-12-11T04:20:42.044Z,-1.42
2022-12-11T04:25:42.049Z,-1.42
2022-12-11T04:30:42.075Z,-1.42
2022-12-11T04:35:42.035Z,-1.42
2022-12-11T04:40:42.044Z,-1.42
2022-12-11T04:45:42.036Z,-1.5
2022-12-11T04:50:42.052Z,-1.62
2022-12-11T04:55:42.055Z,-1.6
2022-12-11T05:00:42.048Z,-1.64
2022-12-11T05:05:42.046Z,-1.68
2022-12-11T05:10:45.797Z,-1.75
2022-12-11T05:15:42.112Z,-1.79
2022-12-11T05:20:42.042Z,-1.8
2022-12-11T05:25:42.039Z,-1.81
2022-12-11T05:30:42.038Z,-1.79
2022-12-11T05:35:42.050Z,-1.8
2022-12-11T05:40:42.035Z,-1.86
2022-12-11T05:45:42.069Z,-1.95
2022-12-11T05:50:42.037Z,-2.02
2022-12-11T05:55:42.035Z,-2.01
2022-12-11T06:00:42.059Z,-2.08
2022-12-11T06:05:42.044Z,-2.11
2022-12-11T06:10:42.030Z,-2.15
2022-12-11T06:15:42.047Z,-2.15
2022-12-11T06:20:42.037Z,-2.11
2022-12-11T06:25:42.044Z,-2.11
2022-12-11T06:30:42.035Z,-2.21
2022-12-11T06:35:42.639Z,-2.3
2022-12-11T06:40:42.041Z,-2.37
2022-12-11T06:45:42.063Z,-2.38
2022-12-11T06:50:42.037Z,-2.41
2022-12-11T06:55:42.048Z,-2.5
2022-12-11T07:00:42.060Z,-2.61
2022-12-11T07:05:42.055Z,-2.68
2022-12-11T07:10:42.050Z,-2.81
2022-12-11T07:15:42.035Z,-2.72
2022-12-11T07:20:42.030Z,-2.64
2022-12-11T07:25:42.048Z,-2.66
2022-12-11T07:30:42.037Z,-2.54
2022-12-11T07:35:42.033Z,-2.34
2022-12-11T07:40:42.043Z,-2.2
2022-12-11T07:45:42.060Z,-2.04
2022-12-11T07:50:42.034Z,-1.96
2022-12-11T07:55:42.022Z,-1.87
2022-12-11T08:00:42.043Z,-1.75
2022-12-11T08:05:42.031Z,-1.6
2022-12-11T08:10:42.047Z,-1.42
2022-12-11T08:15:42.040Z,-1.42
2022-12-11T08:20:42.036Z,-1.35
2022-12-11T08:25:42.029Z,-1.28
2022-12-11T08:30:42.088Z,-1.17
2022-12-11T08:35:42.039Z,-1.01
2022-12-11T08:40:42.049Z,-0.83
2022-12-11T08:45:42.068Z,-0.71
2022-12-11T08:50:42.065Z,-0.67
2022-12-11T08:55:42.039Z,-0.62
2022-12-11T09:00:42.029Z,-0.33
2022-12-11T09:05:42.038Z,-0.31
2022-12-11T09:10:42.033Z,-0.31
2022-12-11T09:15:42.066Z,-0.29
2022-12-11T09:20:42.011Z,-0.19
2022-12-11T09:25:42.025Z,0
2022-12-11T09:30:42.123Z,0.16
2022-12-11T09:40:42.012Z,0.38
2022-12-11T09:45:42.015Z,0.47
2022-12-11T09:50:42.032Z,0.52
2022-12-11T09:55:42.005Z,0.45
2022-12-11T10:00:42.010Z,0.45
2022-12-11T10:05:42.001Z,0.45
2022-12-11T10:10:42.020Z,0.6
2022-12-11T10:15:42.040Z,0.81
2022-12-11T10:20:42.032Z,1.03
2022-12-11T10:25:42.011Z,1.1
2022-12-11T10:35:42.001Z,0.85
2022-12-11T10:40:41.997Z,0.88
2022-12-11T10:45:42.007Z,0.99
2022-12-11T10:50:41.989Z,1.11
2022-12-11T10:55:41.993Z,0.94
2022-12-11T11:00:41.995Z,0.81
2022-12-11T11:05:46.307Z,0.73
2022-12-11T11:10:41.993Z,0.64
2022-12-11T11:15:42.042Z,0.61
2022-12-11T11:20:41.985Z,0.64
2022-12-11T11:25:41.988Z,0.83
2022-12-11T11:30:42.001Z,0.95
2022-12-11T11:35:45.566Z,0.72
2022-12-11T11:40:41.965Z,0.49
2022-12-11T11:45:42.002Z,0.45
2022-12-11T11:50:41.991Z,0.45
2022-12-11T12:00:41.988Z,0.44
2022-12-11T12:05:41.980Z,0.39
2022-12-11T12:10:41.972Z,0.56
2022-12-11T12:15:41.960Z,0.52
2022-12-11T12:20:41.963Z,0.39
2022-12-11T12:25:41.974Z,0.41
2022-12-11T12:30:41.961Z,0.45
2022-12-11T12:35:41.994Z,0.37
2022-12-11T12:40:41.961Z,0.12
2022-12-11T12:45:41.980Z,-0.17
2022-12-11T12:50:41.958Z,-0.21
2022-12-11T12:55:41.972Z,-0.29
2022-12-11T13:00:42.079Z,-0.36
2022-12-11T13:05:41.966Z,-0.52
2022-12-11T13:10:41.960Z,-0.64
2022-12-11T13:15:41.958Z,-0.64
2022-12-11T13:20:41.942Z,-0.52
2022-12-11T13:25:41.954Z,-0.6
2022-12-11T13:30:41.948Z,-0.75
2022-12-11T13:35:41.943Z,-0.88
2022-12-11T13:40:41.945Z,-0.95
2022-12-11T13:45:41.962Z,-0.98
2022-12-11T13:50:41.952Z,-1.04
2022-12-11T13:55:41.940Z,-0.96
2022-12-11T14:00:41.975Z,-0.91
2022-12-11T14:05:42.242Z,-0.93
2022-12-11T14:10:42.172Z,-0.87
2022-12-11T14:15:41.938Z,-0.87
2022-12-11T14:20:41.938Z,-0.97
2022-12-11T14:25:41.931Z,-1.2
2022-12-11T14:30:41.946Z,-1.42
2022-12-11T14:35:41.952Z,-1.55
2022-12-11T14:40:41.929Z,-1.74
2022-12-11T14:45:41.979Z,-1.83
2022-12-11T14:50:41.950Z,-1.91
2022-12-11T14:55:41.933Z,-2.05
2022-12-11T15:00:41.931Z,-2.22
2022-12-11T15:05:41.943Z,-2.4
2022-12-11T15:10:41.955Z,-2.53
2022-12-11T15:15:41.946Z,-2.53
2022-12-11T15:20:41.936Z,-2.34
2022-12-11T15:25:41.950Z,-2.24
2022-12-11T15:30:41.945Z,-2.2
2022-12-11T15:35:41.939Z,-2.19
2022-12-11T15:40:41.942Z,-2.21
2022-12-11T15:45:41.941Z,-2.23
2022-12-11T15:50:41.929Z,-2.25
2022-12-11T15:55:41.949Z,-2.12
2022-12-11T16:00:41.996Z,-2.1
2022-12-11T16:05:41.924Z,-2.04
2022-12-11T16:10:41.932Z,-1.99
2022-12-11T16:25:42.031Z,-1.89
2022-12-11T16:35:42.124Z,-1.76
2022-12-11T16:40:41.933Z,-1.76
2022-12-11T16:50:41.926Z,-1.68
2022-12-11T17:05:41.927Z,-1.63
2022-12-11T17:10:41.933Z,-1.77
2022-12-11T17:15:42.103Z,-1.82
2022-12-11T17:20:41.935Z,-1.92
2022-12-11T17:25:41.948Z,-2.01
2022-12-11T17:30:41.984Z,-2.07
2022-12-11T17:35:41.949Z,-2.15
2022-12-11T17:40:41.952Z,-2.15
2022-12-11T17:45:41.919Z,-2.26
2022-12-11T17:50:41.925Z,-2.3
2022-12-11T17:55:41.959Z,-2.33
2022-12-11T18:00:41.938Z,-2.34
2022-12-11T18:05:41.924Z,-2.34
2022-12-11T18:10:41.955Z,-2.37
2022-12-11T18:15:42.034Z,-2.42
2022-12-11T18:20:41.924Z,-2.39
2022-12-11T18:25:41.925Z,-2.4
2022-12-11T18:30:41.958Z,-2.43
2022-12-11T18:35:41.914Z,-2.43
2022-12-11T18:40:41.923Z,-2.42
2022-12-11T18:45:41.934Z,-2.42
2022-12-11T18:50:41.922Z,-2.48
2022-12-11T18:55:41.915Z,-2.43
2022-12-11T19:00:41.933Z,-2.42
2022-12-11T19:05:41.981Z,-2.41
2022-12-11T19:10:41.923Z,-2.39
2022-12-11T19:15:41.931Z,-2.34
2022-12-11T19:20:52.318Z,-2.4
2022-12-11T19:25:41.940Z,-2.39
2022-12-11T19:30:41.927Z,-2.4
2022-12-11T19:35:41.951Z,-2.34
2022-12-11T19:40:41.927Z,-2.39
2022-12-11T19:45:41.936Z,-2.4
2022-12-11T19:50:41.946Z,-2.37
2022-12-11T19:55:41.932Z,-2.42
2022-12-11T20:00:41.971Z,-2.44
2022-12-11T20:05:41.955Z,-2.49
2022-12-11T20:10:41.939Z,-2.54
2022-12-11T20:15:41.926Z,-2.63
2022-12-11T20:20:41.917Z,-2.56
2022-12-11T20:25:41.949Z,-2.51
2022-12-11T20:30:41.922Z,-2.49
2022-12-11T20:35:41.934Z,-2.42
2022-12-11T20:40:41.936Z,-2.42
2022-12-11T20:45:41.947Z,-2.43
2022-12-11T20:50:41.930Z,-2.4
2022-12-11T20:55:41.936Z,-2.44
2022-12-11T21:00:41.994Z,-2.53
2022-12-11T21:05:41.951Z,-2.5
2022-12-11T21:10:41.931Z,-2.5
2022-12-11T21:15:41.929Z,-2.53
2022-12-11T21:20:41.935Z,-2.59
2022-12-11T21:25:41.927Z,-2.61
2022-12-11T21:30:41.936Z,-2.56
2022-12-11T21:35:41.927Z,-2.63
2022-12-11T21:40:41.907Z,-2.61
2022-12-11T21:50:41.940Z,-2.72
2022-12-11T21:55:41.921Z,-2.72
2022-12-11T22:00:42.000Z,-2.74
2022-12-11T22:05:41.959Z,-2.74
2022-12-11T22:10:41.955Z,-2.73
2022-12-11T22:15:41.973Z,-2.74
2022-12-11T22:20:41.925Z,-2.75
2022-12-11T22:25:41.944Z,-2.73
2022-12-11T22:30:41.958Z,-2.79
2022-12-11T22:35:41.929Z,-2.76
2022-12-11T22:40:42.048Z,-2.74
2022-12-11T22:45:42.056Z,-2.76
2022-12-11T22:55:41.980Z,-2.76
2022-12-11T23:00:41.938Z,-2.7
2022-12-11T23:05:41.925Z,-2.69
2022-12-11T23:10:41.934Z,-2.69
2022-12-11T23:15:41.916Z,-2.75
2022-12-11T23:20:41.940Z,-2.74
2022-12-11T23:25:41.925Z,-2.73
2022-12-11T23:30:41.966Z,-2.76
2022-12-11T23:35:41.918Z,-2.81
2022-12-11T23:40:41.926Z,-2.89
2022-12-11T23:45:41.922Z,-2.92
2022-12-11T23:50:41.945Z,-2.89
2022-12-11T23:55:41.915Z,-2.9
